sensor_id;sensor_type;location;lat;lon;timestamp;P1;P2;P0
65574;PMS5003;52216;54.942;73.394;2023-05-17T00:02:37;0.00;0.00;0.00
65574;PMS5003;52216;54.942;73.394;2023-05-17T00:05:41;0.00;0.00;0.00
65574;PMS5003;52216;54.942;73.394;2023-05-17T00:08:44;0.00;0.00;0.00
65574;PMS5003;52216;54.942;73.394;2023-05-17T00:11:47;0.00;0.00;0.00
65574;PMS5003;52216;54.942;73.394;2023-05-17T00:14:59;0.00;0.00;0.00
65574;PMS5003;52216;54.942;73.394;2023-05-17T00:18:02;0.00;0.00;0.00
65574;PMS5003;52216;54.942;73.394;2023-05-17T00:21:05;0.00;0.00;0.00
65574;PMS5003;52216;54.942;73.394;2023-05-17T00:24:08;0.00;0.00;0.00
65574;PMS5003;52216;54.942;73.394;2023-05-17T00:27:11;0.00;0.00;0.00
65574;PMS5003;52216;54.942;73.394;2023-05-17T00:30:13;0.00;0.00;0.00
65574;PMS5003;52216;54.942;73.394;2023-05-17T00:33:16;0.00;0.00;0.00
65574;PMS5003;52216;54.942;73.394;2023-05-17T00:36:18;0.00;0.00;0.00
65574;PMS5003;52216;54.942;73.394;2023-05-17T00:39:21;0.00;0.00;0.00
65574;PMS5003;52216;54.942;73.394;2023-05-17T00:42:24;0.00;0.00;0.00
65574;PMS5003;52216;54.942;73.394;2023-05-17T00:45:28;0.00;0.00;0.00
65574;PMS5003;52216;54.942;73.394;2023-05-17T00:48:31;0.00;0.00;0.00
65574;PMS5003;52216;54.942;73.394;2023-05-17T00:51:34;0.00;0.00;0.00
65574;PMS5003;52216;54.942;73.394;2023-05-17T00:54:50;0.00;0.00;0.00
65574;PMS5003;52216;54.942;73.394;2023-05-17T00:57:53;0.00;0.00;0.00
65574;PMS5003;52216;54.942;73.394;2023-05-17T01:00:56;0.00;0.00;0.00
65574;PMS5003;52216;54.942;73.394;2023-05-17T01:04:01;0.00;0.00;0.00
65574;PMS5003;52216;54.942;73.394;2023-05-17T01:07:04;0.00;0.00;0.00
65574;PMS5003;52216;54.942;73.394;2023-05-17T01:10:08;0.00;0.00;0.00
65574;PMS5003;52216;54.942;73.394;2023-05-17T01:13:14;0.00;0.00;0.00
65574;PMS5003;52216;54.942;73.394;2023-05-17T01:16:29;0.00;0.00;0.00
65574;PMS5003;52216;54.942;73.394;2023-05-17T01:22:42;0.00;0.00;0.00
65574;PMS5003;52216;54.942;73.394;2023-05-17T01:25:55;0.00;0.00;0.00
65574;PMS5003;52216;54.942;73.394;2023-05-17T01:29:00;0.00;0.00;0.00
65574;PMS5003;52216;54.942;73.394;2023-05-17T01:32:05;0.00;0.00;0.00
65574;PMS5003;52216;54.942;73.394;2023-05-17T01:35:14;0.00;0.00;0.00
65574;PMS5003;52216;54.942;73.394;2023-05-17T01:38:17;0.00;0.00;0.00
65574;PMS5003;52216;54.942;73.394;2023-05-17T01:41:36;0.00;0.00;0.00
65574;PMS5003;52216;54.942;73.394;2023-05-17T01:51:11;0.00;0.00;0.00
65574;PMS5003;52216;54.942;73.394;2023-05-17T01:54:19;0.00;0.00;0.00
65574;PMS5003;52216;54.942;73.394;2023-05-17T01:57:26;0.00;0.00;0.00
65574;PMS5003;52216;54.942;73.394;2023-05-17T02:00:31;0.00;0.00;0.00
65574;PMS5003;52216;54.942;73.394;2023-05-17T02:03:34;0.00;0.00;0.00
65574;PMS5003;52216;54.942;73.394;2023-05-17T02:06:37;0.00;0.00;0.00
65574;PMS5003;52216;54.942;73.394;2023-05-17T02:09:41;0.00;0.00;0.00
65574;PMS5003;52216;54.942;73.394;2023-05-17T02:12:44;0.00;0.00;0.00
65574;PMS5003;52216;54.942;73.394;2023-05-17T02:15:46;0.00;0.00;0.00
65574;PMS5003;52216;54.942;73.394;2023-05-17T02:18:49;0.00;0.00;0.00
65574;PMS5003;52216;54.942;73.394;2023-05-17T02:21:52;0.00;0.00;0.00
65574;PMS5003;52216;54.942;73.394;2023-05-17T02:24:55;0.00;0.00;0.00
65574;PMS5003;52216;54.942;73.394;2023-05-17T02:27:58;0.00;0.00;0.00
65574;PMS5003;52216;54.942;73.394;2023-05-17T02:31:03;0.00;0.00;0.00
65574;PMS5003;52216;54.942;73.394;2023-05-17T02:34:09;0.00;0.00;0.00
65574;PMS5003;52216;54.942;73.394;2023-05-17T02:37:12;0.00;0.00;0.00
65574;PMS5003;52216;54.942;73.394;2023-05-17T02:40:23;0.00;0.00;0.00
65574;PMS5003;52216;54.942;73.394;2023-05-17T02:43:26;0.00;0.00;0.00
65574;PMS5003;52216;54.942;73.394;2023-05-17T02:46:30;0.00;0.00;0.00
65574;PMS5003;52216;54.942;73.394;2023-05-17T02:49:33;0.00;0.00;0.00
65574;PMS5003;52216;54.942;73.394;2023-05-17T02:52:36;0.00;0.00;0.00
65574;PMS5003;52216;54.942;73.394;2023-05-17T02:55:41;0.00;0.00;0.00
65574;PMS5003;52216;54.942;73.394;2023-05-17T02:58:44;0.00;0.00;0.00
65574;PMS5003;52216;54.942;73.394;2023-05-17T03:01:48;0.00;0.00;0.00
65574;PMS5003;52216;54.942;73.394;2023-05-17T03:04:53;0.00;0.00;0.00
65574;PMS5003;52216;54.942;73.394;2023-05-17T03:07:56;0.00;0.00;0.00
65574;PMS5003;52216;54.942;73.394;2023-05-17T03:10:59;0.00;0.00;0.00
65574;PMS5003;52216;54.942;73.394;2023-05-17T03:14:03;0.00;0.00;0.00
65574;PMS5003;52216;54.942;73.394;2023-05-17T03:17:07;0.00;0.00;0.00
65574;PMS5003;52216;54.942;73.394;2023-05-17T03:20:11;0.00;0.00;0.00
65574;PMS5003;52216;54.942;73.394;2023-05-17T03:23:14;0.00;0.00;0.00
65574;PMS5003;52216;54.942;73.394;2023-05-17T03:26:45;0.00;0.00;0.00
65574;PMS5003;52216;54.942;73.394;2023-05-17T03:29:49;0.00;0.00;0.00
65574;PMS5003;52216;54.942;73.394;2023-05-17T03:32:53;0.00;0.00;0.00
65574;PMS5003;52216;54.942;73.394;2023-05-17T03:35:57;0.00;0.00;0.00
65574;PMS5003;52216;54.942;73.394;2023-05-17T03:39:00;0.00;0.00;0.00
65574;PMS5003;52216;54.942;73.394;2023-05-17T03:42:04;0.00;0.00;0.00
65574;PMS5003;52216;54.942;73.394;2023-05-17T03:45:09;0.00;0.00;0.00
65574;PMS5003;52216;54.942;73.394;2023-05-17T03:48:16;0.00;0.00;0.00
65574;PMS5003;52216;54.942;73.394;2023-05-17T03:51:47;0.00;0.00;0.00
65574;PMS5003;52216;54.942;73.394;2023-05-17T03:54:53;0.00;0.00;0.00
65574;PMS5003;52216;54.942;73.394;2023-05-17T03:57:56;0.00;0.00;0.00
65574;PMS5003;52216;54.942;73.394;2023-05-17T04:01:00;0.00;0.00;0.00
65574;PMS5003;52216;54.942;73.394;2023-05-17T04:04:04;0.00;0.00;0.00
65574;PMS5003;52216;54.942;73.394;2023-05-17T04:07:08;0.00;0.00;0.00
65574;PMS5003;52216;54.942;73.394;2023-05-17T04:10:12;0.00;0.00;0.00
65574;PMS5003;52216;54.942;73.394;2023-05-17T04:13:15;0.00;0.00;0.00
65574;PMS5003;52216;54.942;73.394;2023-05-17T04:16:18;0.00;0.00;0.00
65574;PMS5003;52216;54.942;73.394;2023-05-17T04:19:22;0.00;0.00;0.00
65574;PMS5003;52216;54.942;73.394;2023-05-17T04:22:26;0.00;0.00;0.00
65574;PMS5003;52216;54.942;73.394;2023-05-17T04:25:29;0.00;0.00;0.00
65574;PMS5003;52216;54.942;73.394;2023-05-17T04:28:32;0.00;0.00;0.00
65574;PMS5003;52216;54.942;73.394;2023-05-17T04:31:37;0.00;0.00;0.00
65574;PMS5003;52216;54.942;73.394;2023-05-17T04:34:41;0.75;0.50;0.00
65574;PMS5003;52216;54.942;73.394;2023-05-17T04:37:45;0.00;0.00;0.00
65574;PMS5003;52216;54.942;73.394;2023-05-17T04:41:02;0.00;0.00;0.00
65574;PMS5003;52216;54.942;73.394;2023-05-17T04:44:08;0.00;0.00;0.00
65574;PMS5003;52216;54.942;73.394;2023-05-17T04:47:18;0.00;0.00;0.00
65574;PMS5003;52216;54.942;73.394;2023-05-17T04:50:21;0.00;0.00;0.00
65574;PMS5003;52216;54.942;73.394;2023-05-17T04:53:39;0.00;0.00;0.00
65574;PMS5003;52216;54.942;73.394;2023-05-17T04:56:52;0.00;0.00;0.00
65574;PMS5003;52216;54.942;73.394;2023-05-17T05:00:14;0.00;0.00;0.00
65574;PMS5003;52216;54.942;73.394;2023-05-17T05:03:23;0.00;0.00;0.00
65574;PMS5003;52216;54.942;73.394;2023-05-17T05:06:29;0.00;0.00;0.00
65574;PMS5003;52216;54.942;73.394;2023-05-17T05:09:40;0.00;0.00;0.00
65574;PMS5003;52216;54.942;73.394;2023-05-17T05:12:47;0.00;0.00;0.00
65574;PMS5003;52216;54.942;73.394;2023-05-17T05:15:50;0.00;0.00;0.00
65574;PMS5003;52216;54.942;73.394;2023-05-17T05:18:53;0.00;0.00;0.00
65574;PMS5003;52216;54.942;73.394;2023-05-17T05:21:56;0.00;0.00;0.00
65574;PMS5003;52216;54.942;73.394;2023-05-17T05:24:59;0.00;0.00;0.00
65574;PMS5003;52216;54.942;73.394;2023-05-17T05:28:02;0.00;0.00;0.00
65574;PMS5003;52216;54.942;73.394;2023-05-17T05:31:06;0.00;0.00;0.00
65574;PMS5003;52216;54.942;73.394;2023-05-17T05:34:16;0.00;0.00;0.00
65574;PMS5003;52216;54.942;73.394;2023-05-17T05:37:19;0.00;0.00;0.00
65574;PMS5003;52216;54.942;73.394;2023-05-17T05:40:23;0.00;0.00;0.00
65574;PMS5003;52216;54.942;73.394;2023-05-17T05:43:28;0.00;0.00;0.00
65574;PMS5003;52216;54.942;73.394;2023-05-17T05:46:31;0.00;0.00;0.00
65574;PMS5003;52216;54.942;73.394;2023-05-17T05:49:34;0.00;0.00;0.00
65574;PMS5003;52216;54.942;73.394;2023-05-17T05:52:37;0.00;0.00;0.00
65574;PMS5003;52216;54.942;73.394;2023-05-17T05:55:40;0.00;0.00;0.00
65574;PMS5003;52216;54.942;73.394;2023-05-17T05:58:45;0.00;0.00;0.00
65574;PMS5003;52216;54.942;73.394;2023-05-17T06:01:48;0.00;0.00;0.00
65574;PMS5003;52216;54.942;73.394;2023-05-17T06:04:51;0.00;0.00;0.00
65574;PMS5003;52216;54.942;73.394;2023-05-17T06:07:54;0.00;0.00;0.00
65574;PMS5003;52216;54.942;73.394;2023-05-17T06:10:57;0.00;0.00;0.00
65574;PMS5003;52216;54.942;73.394;2023-05-17T06:14:00;0.00;0.00;0.00
65574;PMS5003;52216;54.942;73.394;2023-05-17T06:17:03;0.00;0.00;0.00
65574;PMS5003;52216;54.942;73.394;2023-05-17T06:20:07;0.00;0.00;0.00
65574;PMS5003;52216;54.942;73.394;2023-05-17T06:23:11;0.00;0.00;0.00
65574;PMS5003;52216;54.942;73.394;2023-05-17T06:26:14;0.00;0.00;0.00
65574;PMS5003;52216;54.942;73.394;2023-05-17T06:29:17;0.00;0.00;0.00
65574;PMS5003;52216;54.942;73.394;2023-05-17T06:32:20;0.00;0.00;0.00
65574;PMS5003;52216;54.942;73.394;2023-05-17T06:35:26;0.00;0.00;0.00
65574;PMS5003;52216;54.942;73.394;2023-05-17T06:38:30;0.00;0.00;0.00
65574;PMS5003;52216;54.942;73.394;2023-05-17T06:41:33;0.00;0.00;0.00
65574;PMS5003;52216;54.942;73.394;2023-05-17T06:44:37;0.00;0.00;0.00
65574;PMS5003;52216;54.942;73.394;2023-05-17T06:47:40;0.00;0.00;0.00
65574;PMS5003;52216;54.942;73.394;2023-05-17T06:50:43;0.00;0.00;0.00
65574;PMS5003;52216;54.942;73.394;2023-05-17T06:53:46;0.00;0.00;0.00
65574;PMS5003;52216;54.942;73.394;2023-05-17T06:56:49;0.00;0.00;0.00
65574;PMS5003;52216;54.942;73.394;2023-05-17T06:59:53;0.00;0.00;0.00
65574;PMS5003;52216;54.942;73.394;2023-05-17T07:03:34;0.00;0.00;0.00
65574;PMS5003;52216;54.942;73.394;2023-05-17T07:06:38;0.00;0.00;0.00
65574;PMS5003;52216;54.942;73.394;2023-05-17T07:09:57;0.00;0.00;0.00
65574;PMS5003;52216;54.942;73.394;2023-05-17T07:13:33;0.00;0.00;0.00
65574;PMS5003;52216;54.942;73.394;2023-05-17T07:16:37;0.00;0.00;0.00
65574;PMS5003;52216;54.942;73.394;2023-05-17T07:19:42;0.00;0.00;0.00
65574;PMS5003;52216;54.942;73.394;2023-05-17T07:22:46;0.00;0.00;0.00
65574;PMS5003;52216;54.942;73.394;2023-05-17T07:25:50;0.00;0.00;0.00
65574;PMS5003;52216;54.942;73.394;2023-05-17T07:28:53;0.00;0.00;0.00
65574;PMS5003;52216;54.942;73.394;2023-05-17T07:31:56;0.00;0.00;0.00
65574;PMS5003;52216;54.942;73.394;2023-05-17T07:35:19;0.00;0.00;0.00
65574;PMS5003;52216;54.942;73.394;2023-05-17T07:38:22;0.00;0.00;0.00
65574;PMS5003;52216;54.942;73.394;2023-05-17T07:41:25;0.00;0.00;0.00
65574;PMS5003;52216;54.942;73.394;2023-05-17T07:44:28;0.00;0.00;0.00
65574;PMS5003;52216;54.942;73.394;2023-05-17T07:47:31;0.00;0.00;0.00
65574;PMS5003;52216;54.942;73.394;2023-05-17T07:50:34;0.00;0.00;0.00
65574;PMS5003;52216;54.942;73.394;2023-05-17T07:53:37;0.00;0.00;0.00
65574;PMS5003;52216;54.942;73.394;2023-05-17T07:56:40;0.00;0.00;0.00
65574;PMS5003;52216;54.942;73.394;2023-05-17T07:59:43;0.00;0.00;0.00
65574;PMS5003;52216;54.942;73.394;2023-05-17T08:02:47;0.00;0.00;0.00
65574;PMS5003;52216;54.942;73.394;2023-05-17T08:05:50;0.00;0.00;0.00
65574;PMS5003;52216;54.942;73.394;2023-05-17T08:08:53;0.00;0.00;0.00
65574;PMS5003;52216;54.942;73.394;2023-05-17T08:11:56;0.00;0.00;0.00
65574;PMS5003;52216;54.942;73.394;2023-05-17T08:14:59;0.00;0.00;0.00
65574;PMS5003;52216;54.942;73.394;2023-05-17T08:18:02;0.00;0.00;0.00
65574;PMS5003;52216;54.942;73.394;2023-05-17T08:21:06;0.00;0.00;0.00
65574;PMS5003;52216;54.942;73.394;2023-05-17T08:24:10;0.00;0.00;0.00
65574;PMS5003;52216;54.942;73.394;2023-05-17T08:27:13;0.00;0.00;0.00
65574;PMS5003;52216;54.942;73.394;2023-05-17T08:30:16;0.00;0.00;0.00
65574;PMS5003;52216;54.942;73.394;2023-05-17T08:33:19;0.00;0.00;0.00
65574;PMS5003;52216;54.942;73.394;2023-05-17T08:36:24;0.00;0.00;0.00
65574;PMS5003;52216;54.942;73.394;2023-05-17T08:39:28;0.00;0.00;0.00
65574;PMS5003;52216;54.942;73.394;2023-05-17T08:42:31;0.00;0.00;0.00
65574;PMS5003;52216;54.942;73.394;2023-05-17T08:45:35;0.00;0.00;0.00
65574;PMS5003;52216;54.942;73.394;2023-05-17T08:48:45;0.00;0.00;0.00
65574;PMS5003;52216;54.942;73.394;2023-05-17T08:51:49;0.00;0.00;0.00
65574;PMS5003;52216;54.942;73.394;2023-05-17T08:54:53;0.00;0.00;0.00
65574;PMS5003;52216;54.942;73.394;2023-05-17T08:57:57;0.00;0.00;0.00
65574;PMS5003;52216;54.942;73.394;2023-05-17T09:01:00;0.00;0.00;0.00
65574;PMS5003;52216;54.942;73.394;2023-05-17T09:04:05;0.00;0.00;0.00
65574;PMS5003;52216;54.942;73.394;2023-05-17T09:07:11;0.00;0.00;0.00
65574;PMS5003;52216;54.942;73.394;2023-05-17T09:10:15;0.00;0.00;0.00
65574;PMS5003;52216;54.942;73.394;2023-05-17T09:13:18;0.00;0.00;0.00
65574;PMS5003;52216;54.942;73.394;2023-05-17T09:16:21;0.00;0.00;0.00
65574;PMS5003;52216;54.942;73.394;2023-05-17T09:19:24;0.00;0.00;0.00
65574;PMS5003;52216;54.942;73.394;2023-05-17T09:22:27;0.00;0.00;0.00
65574;PMS5003;52216;54.942;73.394;2023-05-17T09:25:30;0.00;0.00;0.00
65574;PMS5003;52216;54.942;73.394;2023-05-17T09:28:37;0.00;0.00;0.00
65574;PMS5003;52216;54.942;73.394;2023-05-17T09:31:41;0.00;0.00;0.00
65574;PMS5003;52216;54.942;73.394;2023-05-17T09:34:45;0.00;0.00;0.00
65574;PMS5003;52216;54.942;73.394;2023-05-17T09:37:48;0.00;0.00;0.00
65574;PMS5003;52216;54.942;73.394;2023-05-17T09:40:51;0.00;0.00;0.00
65574;PMS5003;52216;54.942;73.394;2023-05-17T09:44:01;0.00;0.00;0.00
65574;PMS5003;52216;54.942;73.394;2023-05-17T09:47:05;0.00;0.00;0.00
65574;PMS5003;52216;54.942;73.394;2023-05-17T09:50:08;0.00;0.00;0.00
65574;PMS5003;52216;54.942;73.394;2023-05-17T09:53:32;0.00;0.00;0.00
65574;PMS5003;52216;54.942;73.394;2023-05-17T09:56:40;0.00;0.00;0.00
65574;PMS5003;52216;54.942;73.394;2023-05-17T09:59:43;0.00;0.00;0.00
65574;PMS5003;52216;54.942;73.394;2023-05-17T10:02:45;0.00;0.00;0.00
65574;PMS5003;52216;54.942;73.394;2023-05-17T10:05:49;0.00;0.00;0.00
65574;PMS5003;52216;54.942;73.394;2023-05-17T10:08:54;0.00;0.00;0.00
65574;PMS5003;52216;54.942;73.394;2023-05-17T10:12:01;0.00;0.00;0.00
65574;PMS5003;52216;54.942;73.394;2023-05-17T10:15:05;0.00;0.00;0.00
65574;PMS5003;52216;54.942;73.394;2023-05-17T10:18:09;0.00;0.00;0.00
65574;PMS5003;52216;54.942;73.394;2023-05-17T10:21:12;0.00;0.00;0.00
65574;PMS5003;52216;54.942;73.394;2023-05-17T10:24:16;0.00;0.00;0.00
65574;PMS5003;52216;54.942;73.394;2023-05-17T10:27:21;0.00;0.00;0.00
65574;PMS5003;52216;54.942;73.394;2023-05-17T10:30:27;0.00;0.00;0.00
65574;PMS5003;52216;54.942;73.394;2023-05-17T10:33:30;0.00;0.00;0.00
65574;PMS5003;52216;54.942;73.394;2023-05-17T10:36:34;0.00;0.00;0.00
65574;PMS5003;52216;54.942;73.394;2023-05-17T10:40:19;0.00;0.00;0.00
65574;PMS5003;52216;54.942;73.394;2023-05-17T10:43:23;0.00;0.00;0.00
65574;PMS5003;52216;54.942;73.394;2023-05-17T10:46:27;0.00;0.00;0.00
65574;PMS5003;52216;54.942;73.394;2023-05-17T10:49:32;0.00;0.00;0.00
65574;PMS5003;52216;54.942;73.394;2023-05-17T10:52:37;0.00;0.00;0.00
65574;PMS5003;52216;54.942;73.394;2023-05-17T10:55:41;0.00;0.00;0.00
65574;PMS5003;52216;54.942;73.394;2023-05-17T10:58:44;0.00;0.00;0.00
65574;PMS5003;52216;54.942;73.394;2023-05-17T11:01:51;0.00;0.00;0.00
65574;PMS5003;52216;54.942;73.394;2023-05-17T11:05:22;0.00;0.00;0.00
65574;PMS5003;52216;54.942;73.394;2023-05-17T11:08:28;0.00;0.00;0.00
65574;PMS5003;52216;54.942;73.394;2023-05-17T11:11:33;0.00;0.00;0.00
65574;PMS5003;52216;54.942;73.394;2023-05-17T11:17:49;0.00;0.00;0.00
65574;PMS5003;52216;54.942;73.394;2023-05-17T11:21:05;0.00;0.00;0.00
65574;PMS5003;52216;54.942;73.394;2023-05-17T11:24:09;0.00;0.00;0.00
65574;PMS5003;52216;54.942;73.394;2023-05-17T11:27:13;0.00;0.00;0.00
65574;PMS5003;52216;54.942;73.394;2023-05-17T11:30:17;0.00;0.00;0.00
65574;PMS5003;52216;54.942;73.394;2023-05-17T11:33:20;0.00;0.00;0.00
65574;PMS5003;52216;54.942;73.394;2023-05-17T11:36:49;0.00;0.00;0.00
65574;PMS5003;52216;54.942;73.394;2023-05-17T11:39:59;0.00;0.00;0.00
65574;PMS5003;52216;54.942;73.394;2023-05-17T11:43:16;0.00;0.00;0.00
65574;PMS5003;52216;54.942;73.394;2023-05-17T11:46:21;0.00;0.00;0.00
65574;PMS5003;52216;54.942;73.394;2023-05-17T11:49:24;0.00;0.00;0.00
65574;PMS5003;52216;54.942;73.394;2023-05-17T11:52:28;0.00;0.00;0.00
65574;PMS5003;52216;54.942;73.394;2023-05-17T11:55:33;0.00;0.00;0.00
65574;PMS5003;52216;54.942;73.394;2023-05-17T11:58:39;0.00;0.00;0.00
65574;PMS5003;52216;54.942;73.394;2023-05-17T12:01:44;0.00;0.00;0.00
65574;PMS5003;52216;54.942;73.394;2023-05-17T12:05:03;0.00;0.00;0.00
65574;PMS5003;52216;54.942;73.394;2023-05-17T12:08:09;1.50;0.50;0.00
65574;PMS5003;52216;54.942;73.394;2023-05-17T12:11:13;0.00;0.00;0.00
65574;PMS5003;52216;54.942;73.394;2023-05-17T12:14:16;0.50;0.00;0.00
65574;PMS5003;52216;54.942;73.394;2023-05-17T12:17:30;0.00;0.00;0.00
65574;PMS5003;52216;54.942;73.394;2023-05-17T12:20:51;0.00;0.00;0.00
65574;PMS5003;52216;54.942;73.394;2023-05-17T12:23:54;0.00;0.00;0.00
65574;PMS5003;52216;54.942;73.394;2023-05-17T12:26:57;0.00;0.00;0.00
65574;PMS5003;52216;54.942;73.394;2023-05-17T12:30:12;0.00;0.00;0.00
65574;PMS5003;52216;54.942;73.394;2023-05-17T12:33:14;0.00;0.00;0.00
65574;PMS5003;52216;54.942;73.394;2023-05-17T12:36:17;0.00;0.00;0.00
65574;PMS5003;52216;54.942;73.394;2023-05-17T12:39:21;0.25;0.00;0.00
65574;PMS5003;52216;54.942;73.394;2023-05-17T12:42:27;1.00;0.00;0.00
65574;PMS5003;52216;54.942;73.394;2023-05-17T12:45:30;0.00;0.00;0.00
65574;PMS5003;52216;54.942;73.394;2023-05-17T12:48:34;0.00;0.00;0.00
65574;PMS5003;52216;54.942;73.394;2023-05-17T12:51:42;0.00;0.00;0.00
65574;PMS5003;52216;54.942;73.394;2023-05-17T12:54:45;1.00;1.00;0.00
65574;PMS5003;52216;54.942;73.394;2023-05-17T12:57:52;0.00;0.00;0.00
65574;PMS5003;52216;54.942;73.394;2023-05-17T13:01:03;1.83;1.00;0.00
65574;PMS5003;52216;54.942;73.394;2023-05-17T13:04:09;0.75;0.00;0.00
65574;PMS5003;52216;54.942;73.394;2023-05-17T13:07:19;3.00;3.00;0.00
65574;PMS5003;52216;54.942;73.394;2023-05-17T13:10:23;3.50;3.00;0.00
65574;PMS5003;52216;54.942;73.394;2023-05-17T13:13:31;2.00;2.00;0.00
65574;PMS5003;52216;54.942;73.394;2023-05-17T13:16:38;4.00;4.00;0.00
65574;PMS5003;52216;54.942;73.394;2023-05-17T13:19:41;3.00;3.00;0.00
65574;PMS5003;52216;54.942;73.394;2023-05-17T13:22:46;3.00;2.00;0.00
65574;PMS5003;52216;54.942;73.394;2023-05-17T13:25:49;3.00;3.00;1.00
65574;PMS5003;52216;54.942;73.394;2023-05-17T13:28:52;3.00;3.00;0.00
65574;PMS5003;52216;54.942;73.394;2023-05-17T13:31:56;1.00;1.00;0.00
65574;PMS5003;52216;54.942;73.394;2023-05-17T13:34:59;1.25;0.25;0.00
65574;PMS5003;52216;54.942;73.394;2023-05-17T13:38:06;2.25;1.00;0.00
65574;PMS5003;52216;54.942;73.394;2023-05-17T13:41:09;4.00;3.00;0.00
65574;PMS5003;52216;54.942;73.394;2023-05-17T13:44:12;1.25;1.00;0.00
65574;PMS5003;52216;54.942;73.394;2023-05-17T13:47:16;3.00;3.00;0.00
65574;PMS5003;52216;54.942;73.394;2023-05-17T13:50:19;1.00;0.00;0.00
65574;PMS5003;52216;54.942;73.394;2023-05-17T13:53:23;5.00;5.00;1.00
65574;PMS5003;52216;54.942;73.394;2023-05-17T13:56:26;0.00;0.00;0.00
65574;PMS5003;52216;54.942;73.394;2023-05-17T13:59:29;0.00;0.00;0.00
65574;PMS5003;52216;54.942;73.394;2023-05-17T14:02:31;1.75;0.00;0.00
65574;PMS5003;52216;54.942;73.394;2023-05-17T14:05:34;1.00;0.00;0.00
65574;PMS5003;52216;54.942;73.394;2023-05-17T14:08:38;0.00;0.00;0.00
65574;PMS5003;52216;54.942;73.394;2023-05-17T14:11:40;0.00;0.00;0.00
65574;PMS5003;52216;54.942;73.394;2023-05-17T14:14:43;1.00;0.00;0.00
65574;PMS5003;52216;54.942;73.394;2023-05-17T14:17:46;5.75;5.00;1.25
65574;PMS5003;52216;54.942;73.394;2023-05-17T14:20:50;2.00;2.00;1.00
65574;PMS5003;52216;54.942;73.394;2023-05-17T14:23:55;8.00;8.00;2.75
65574;PMS5003;52216;54.942;73.394;2023-05-17T14:26:58;6.00;6.00;2.00
65574;PMS5003;52216;54.942;73.394;2023-05-17T14:30:00;5.00;5.00;2.00
65574;PMS5003;52216;54.942;73.394;2023-05-17T14:33:04;5.00;5.00;1.00
65574;PMS5003;52216;54.942;73.394;2023-05-17T14:36:08;3.00;3.00;2.00
65574;PMS5003;52216;54.942;73.394;2023-05-17T14:39:11;5.00;4.00;1.00
65574;PMS5003;52216;54.942;73.394;2023-05-17T14:42:25;5.00;4.00;1.00
65574;PMS5003;52216;54.942;73.394;2023-05-17T14:45:28;5.25;5.25;1.00
65574;PMS5003;52216;54.942;73.394;2023-05-17T14:48:32;3.50;3.25;1.00
65574;PMS5003;52216;54.942;73.394;2023-05-17T14:51:36;6.25;6.25;1.00
65574;PMS5003;52216;54.942;73.394;2023-05-17T14:54:40;5.00;4.00;1.00
65574;PMS5003;52216;54.942;73.394;2023-05-17T14:57:45;7.50;7.00;3.00
65574;PMS5003;52216;54.942;73.394;2023-05-17T15:00:49;6.00;6.00;2.00
65574;PMS5003;52216;54.942;73.394;2023-05-17T15:03:56;6.00;6.00;1.00
65574;PMS5003;52216;54.942;73.394;2023-05-17T15:06:59;8.00;7.00;3.00
65574;PMS5003;52216;54.942;73.394;2023-05-17T15:10:05;6.00;6.00;3.00
65574;PMS5003;52216;54.942;73.394;2023-05-17T15:13:09;5.75;5.75;2.00
65574;PMS5003;52216;54.942;73.394;2023-05-17T15:16:13;22.00;18.33;9.33
65574;PMS5003;52216;54.942;73.394;2023-05-17T15:19:15;33.67;27.00;14.33
65574;PMS5003;52216;54.942;73.394;2023-05-17T15:22:18;31.50;25.75;14.00
65574;PMS5003;52216;54.942;73.394;2023-05-17T15:25:20;25.00;22.00;12.50
65574;PMS5003;52216;54.942;73.394;2023-05-17T15:28:23;25.67;24.00;12.67
65574;PMS5003;52216;54.942;73.394;2023-05-17T15:31:26;24.33;21.00;12.00
65574;PMS5003;52216;54.942;73.394;2023-05-17T15:34:30;19.00;18.00;8.00
65574;PMS5003;52216;54.942;73.394;2023-05-17T15:37:33;16.75;14.00;6.00
65574;PMS5003;52216;54.942;73.394;2023-05-17T15:40:35;15.50;13.00;6.00
65574;PMS5003;52216;54.942;73.394;2023-05-17T15:43:38;11.75;7.25;5.00
65574;PMS5003;52216;54.942;73.394;2023-05-17T15:46:41;7.00;5.00;3.00
65574;PMS5003;52216;54.942;73.394;2023-05-17T15:49:43;5.75;5.00;2.00
65574;PMS5003;52216;54.942;73.394;2023-05-17T15:52:46;14.33;11.67;6.00
65574;PMS5003;52216;54.942;73.394;2023-05-17T15:55:49;18.50;16.00;7.50
65574;PMS5003;52216;54.942;73.394;2023-05-17T15:58:54;14.50;14.00;4.00
65574;PMS5003;52216;54.942;73.394;2023-05-17T16:02:00;8.00;7.00;3.00
65574;PMS5003;52216;54.942;73.394;2023-05-17T16:05:04;6.50;5.50;2.00
65574;PMS5003;52216;54.942;73.394;2023-05-17T16:08:11;4.75;4.00;1.75
65574;PMS5003;52216;54.942;73.394;2023-05-17T16:11:14;5.75;5.00;2.00
65574;PMS5003;52216;54.942;73.394;2023-05-17T16:14:18;5.50;4.50;2.00
65574;PMS5003;52216;54.942;73.394;2023-05-17T16:17:21;2.00;2.00;1.00
65574;PMS5003;52216;54.942;73.394;2023-05-17T16:20:24;2.00;2.00;0.00
65574;PMS5003;52216;54.942;73.394;2023-05-17T16:23:27;5.00;4.00;0.00
65574;PMS5003;52216;54.942;73.394;2023-05-17T16:26:34;4.50;4.50;1.00
65574;PMS5003;52216;54.942;73.394;2023-05-17T16:29:37;4.00;4.00;1.00
65574;PMS5003;52216;54.942;73.394;2023-05-17T16:32:43;6.50;5.50;1.50
65574;PMS5003;52216;54.942;73.394;2023-05-17T16:35:50;11.00;9.50;5.00
65574;PMS5003;52216;54.942;73.394;2023-05-17T16:38:53;14.50;13.75;6.00
65574;PMS5003;52216;54.942;73.394;2023-05-17T16:41:55;18.00;16.00;8.00
65574;PMS5003;52216;54.942;73.394;2023-05-17T16:44:58;14.00;12.75;4.75
65574;PMS5003;52216;54.942;73.394;2023-05-17T16:48:00;7.33;5.33;1.33
65574;PMS5003;52216;54.942;73.394;2023-05-17T16:51:03;3.00;3.00;1.00
65574;PMS5003;52216;54.942;73.394;2023-05-17T16:54:06;2.00;2.00;0.00
65574;PMS5003;52216;54.942;73.394;2023-05-17T16:57:10;2.00;2.00;0.00
65574;PMS5003;52216;54.942;73.394;2023-05-17T17:00:13;2.00;1.75;0.00
65574;PMS5003;52216;54.942;73.394;2023-05-17T17:03:15;1.00;1.00;0.00
65574;PMS5003;52216;54.942;73.394;2023-05-17T17:06:19;2.00;0.00;0.00
65574;PMS5003;52216;54.942;73.394;2023-05-17T17:09:22;3.00;3.00;0.00
65574;PMS5003;52216;54.942;73.394;2023-05-17T17:12:25;1.25;1.25;0.00
65574;PMS5003;52216;54.942;73.394;2023-05-17T17:15:28;0.00;0.00;0.00
65574;PMS5003;52216;54.942;73.394;2023-05-17T17:18:32;1.50;1.25;0.00
65574;PMS5003;52216;54.942;73.394;2023-05-17T17:21:35;4.00;3.50;0.00
65574;PMS5003;52216;54.942;73.394;2023-05-17T17:24:39;2.00;2.00;0.00
65574;PMS5003;52216;54.942;73.394;2023-05-17T17:27:42;3.00;3.00;0.00
65574;PMS5003;52216;54.942;73.394;2023-05-17T17:30:45;1.00;1.00;0.00
65574;PMS5003;52216;54.942;73.394;2023-05-17T17:33:50;2.75;1.25;0.00
65574;PMS5003;52216;54.942;73.394;2023-05-17T17:36:53;3.50;3.50;0.00
65574;PMS5003;52216;54.942;73.394;2023-05-17T17:39:57;4.00;4.00;0.00
65574;PMS5003;52216;54.942;73.394;2023-05-17T17:43:00;4.50;3.50;0.00
65574;PMS5003;52216;54.942;73.394;2023-05-17T17:46:03;8.00;7.00;2.00
65574;PMS5003;52216;54.942;73.394;2023-05-17T17:49:06;7.00;5.00;1.00
65574;PMS5003;52216;54.942;73.394;2023-05-17T17:52:09;5.00;5.00;2.00
65574;PMS5003;52216;54.942;73.394;2023-05-17T17:55:12;4.00;3.00;1.00
65574;PMS5003;52216;54.942;73.394;2023-05-17T17:58:17;3.00;3.00;0.00
65574;PMS5003;52216;54.942;73.394;2023-05-17T18:01:23;1.75;1.75;0.00